Cambridge, MA

6:42 PM EST on January 26, 2015 (GMT -0500)
Norwood Memorial | Change Station
CLOSE
Current Station
Airport
Location: Norwood,
Elevation: 49 ft
Nearby Weather Stations
Active Advisory: Blizzard Warning

Elev 49 ft 42.19 °N, 71.17 °W | Updated 26 minutes ago

Snow
Snow
28 °F
Feels Like 17 °F
N
14
Wind Variable Wind from NE
Gusts 25 mph

Today
High -- | Low -- °F
--% Chance of Precip.
Yesterday
High -- | Low -- °F
Precip. -- in
7:04 AM 4:50 PM
Waxing Crescent, 48% visible
Pressure 30.00 in
Visibility 1.5 miles
Clouds Overcast 2000 ft
Windchill 17 °F
Dew Point 23 °F
Humidity 81%
Rainfall 0.00 in
Snow Depth Not available.
UV 0 out of 12
Pollen .10 out of 12
Air Quality Not available.
Flu Activity Not available.
SPECI KOWD 262316Z 05012G22KT 1 1/2SM -SN OVC020 M02/M05 A3000 RMK AO2 P0000 T10221050

More Conditions Fewer Conditions

Pressure 30.00 in
Visibility 1.5 miles
Clouds Overcast 2000 ft
Windchill 17 °F
Dew Point 23 °F
Humidity 81%
Rainfall 0.00 in
Snow Depth Not available.
UV 0 out of 12
Pollen .10 out of 12
Air Quality Not available.
Flu Activity Not available.
SPECI KOWD 262316Z 05012G22KT 1 1/2SM -SN OVC020 M02/M05 A3000 RMK AO2 P0000 T10221050

More Conditions Fewer Conditions

10-Day Weather Forecast

Almanac

Astronomy

Jan. 26, 2015 Rise Set
Actual Time
Civil Twilight
Nautical Twilight
Astronomical Twilight
Moon
Length of Visible Light
Length of Day
Tomorrow will be .
, % of the Moon is Illuminated

Today's Extremes

State Highs State Lows

Community

WunderPhotos

Upload Photos

1,790,408 photos uploaded!

WunderBlogs® & News

Nearby

Air Quality

  Air Quality AQ Index Pollutant
Not available.

Snow Depth

Station Depth Elevation

Earthquake Activity

City Distance Mag. Time & Date
Minimum magnitude displayed is 2.5.

Coastal Water Temperatures

Place Temperature

Nearby Weather Stations